M/T Vemaoil Xi — 9HWD7 — position and weather

sailwx.info

Track history (hours):
 
Tides and Currents Weather Stations Pressure Air Temp Water Temp Dewpoint Dewpoint Depression Visibility Wind Speed Wind Dir Waves Ship Positions

M/T Vemaoil Xi

Last reported at 2016-May-28 07:33 UTC. Time now 2016-May-28 07:59 UTC.
Position N 35°53' E 014°46'.

Length 105 m; draft 6.6 m.

Type: Tanker. MMSI: 215631000.

Date/timePositionNaut miles runAvg speedWind from/ knotsBaromVisibWave heightAir tempDewpointWater temp
2016-May-28 07:33N 35°53' E 014°46'0 0.0
2016-May-28 06:32N 35°53' E 014°46'0 0.0
2016-May-28 05:33N 35°53' E 014°46'1 0.7
2016-May-28 04:33N 35°52' E 014°45'0 0.5
2016-May-28 03:31N 35°53' E 014°45'0 0.0
2016-May-28 02:28N 35°53' E 014°45'0 0.0
2016-May-28 01:31N 35°53' E 014°45'0 0.0
2016-May-28 00:28N 35°53' E 014°45'0 0.0
2016-May-27 23:31N 35°53' E 014°45'0 0.0
2016-May-27 22:31N 35°53' E 014°45'0 0.1
2016-May-27 21:33N 35°53' E 014°45'0 0.3
2016-May-27 20:13N 35°52' E 014°45'0 0.0
2016-May-27 19:31N 35°52' E 014°45'0 0.0
2016-May-27 18:31N 35°52' E 014°45'0 0.0
2016-May-27 17:31N 35°52' E 014°45'1 1.2
2016-May-27 16:32N 35°53' E 014°46'0 0.0
2016-May-27 15:32N 35°53' E 014°46'0 0.0
2016-May-27 14:32N 35°53' E 014°46'0 0.0
2016-May-27 13:32N 35°53' E 014°46'0 0.0
2016-May-27 12:29N 35°53' E 014°46'0 0.0
2016-May-27 11:32N 35°53' E 014°46'0 0.0
2016-May-27 10:32N 35°53' E 014°46'0 0.1
2016-May-27 09:32N 35°53' E 014°46'2 1.9
2016-May-27 08:32N 35°54' E 014°48'1 0.7
2016-May-27 07:33N 35°55' E 014°47'0 0.0
2016-May-27 06:33N 35°55' E 014°47'0 0.0
2016-May-27 05:33N 35°55' E 014°47'0 0.0
2016-May-27 04:33N 35°55' E 014°47'0 0.0
2016-May-27 03:33N 35°55' E 014°47'1 1.3
2016-May-27 02:33N 35°55' E 014°46'6 6.4
2016-May-27 01:33N 35°54' E 014°38'6 6.0
2016-May-27 00:33N 35°53' E 014°31'1 0.6
2016-May-26 23:33N 35°53' E 014°30'0 0.0
2016-May-26 22:33N 35°53' E 014°30'0 0.0
2016-May-26 21:33N 35°53' E 014°30'0 0.0
2016-May-26 20:33N 35°53' E 014°30'0 0.0
2016-May-26 19:33N 35°53' E 014°30'0 0.0
2016-May-26 18:34N 35°53' E 014°30'0 0.0
2016-May-26 17:33N 35°53' E 014°30'0 0.0
2016-May-26 16:33N 35°53' E 014°30'0 0.0
2016-May-26 15:33N 35°53' E 014°30'2 1.5
2016-May-26 14:33N 35°54' E 014°31'3 3.3
2016-May-26 13:33N 35°56' E 014°34'1 1.3
2016-May-26 12:33N 35°57' E 014°36'2 2.1
2016-May-26 11:33N 35°55' E 014°34'2 1.5
2016-May-26 10:33N 35°55' E 014°36'3 3.4
2016-May-26 09:33N 35°55' E 014°40'6 5.9
2016-May-26 08:33N 35°55' E 014°47'0 0.2
2016-May-26 07:34N 35°54' E 014°47'0 0.0
2016-May-26 06:34N 35°54' E 014°47'0 0.0
2016-May-26 05:33N 35°54' E 014°47'0 0.0
2016-May-26 04:33N 35°54' E 014°47'0 0.0
2016-May-26 03:33N 35°54' E 014°47'0 0.0
2016-May-26 02:33N 35°54' E 014°47'0 0.0
2016-May-26 01:33N 35°54' E 014°47'2 1.5
2016-May-26 00:33N 35°53' E 014°46'0 0.0
2016-May-25 23:33N 35°53' E 014°46'0 0.0
2016-May-25 22:33N 35°53' E 014°46'0 0.0
2016-May-25 21:33N 35°53' E 014°46'0 0.0
2016-May-25 20:33N 35°53' E 014°46'5 4.5
2016-May-25 19:33N 35°51' E 014°41'5 4.9
2016-May-25 18:33N 35°50' E 014°35'0 0.0
2016-May-25 17:33N 35°50' E 014°35'0 0.0
2016-May-25 16:34N 35°50' E 014°35'0 0.0
2016-May-25 15:26N 35°50' E 014°35'0 0.0
2016-May-25 14:23N 35°50' E 014°35'0 0.0
2016-May-25 13:33N 35°50' E 014°35'0 0.0
2016-May-25 12:33N 35°50' E 014°35'0 0.0
2016-May-25 11:33N 35°50' E 014°35'0 0.2
2016-May-25 10:33N 35°49' E 014°35'0 0.0
2016-May-25 09:34N 35°49' E 014°35'0 0.0
2016-May-25 08:33N 35°49' E 014°35'1 1.5
2016-May-25 07:33N 35°49' E 014°34'1 1.1
2016-May-25 06:31N 35°49' E 014°32'0 0.0
2016-May-25 01:19N 35°49' E 014°32'1 1.0
2016-May-25 00:31N 35°49' E 014°33'2 2.2
2016-May-24 23:33N 35°49' E 014°36'0 0.0
2016-May-24 22:30N 35°49' E 014°36'0 0.0
2016-May-24 21:32N 35°49' E 014°36'0 0.0
2016-May-24 20:33N 35°49' E 014°36'0 0.1
2016-May-24 19:32N 35°49' E 014°36'0 0.0
2016-May-24 18:33N 35°49' E 014°36'0 0.0
2016-May-24 17:33N 35°49' E 014°36'0 0.1
2016-May-24 16:33N 35°49' E 014°36'0 0.4
2016-May-24 15:33N 35°49' E 014°36'0 0.5
2016-May-24 14:34N 35°49' E 014°35'0 0.0
2016-May-24 13:33N 35°49' E 014°35'0 0.0
2016-May-24 12:33N 35°49' E 014°35'0 0.0
2016-May-24 11:34N 35°49' E 014°35'0 0.0
2016-May-24 10:33N 35°49' E 014°35'0 0.1
2016-May-24 09:33N 35°49' E 014°35'0 0.4
2016-May-24 08:33N 35°49' E 014°35'0 0.0
2016-May-24 07:33N 35°49' E 014°35'0 0.1
2016-May-24 06:33N 35°49' E 014°35'0 0.1
2016-May-24 05:33N 35°49' E 014°35'0 0.0
2016-May-24 04:33N 35°49' E 014°35'0 0.0
2016-May-24 03:34N 35°49' E 014°35'0 0.0
2016-May-24 02:33N 35°49' E 014°35'0 0.0
2016-May-24 01:33N 35°49' E 014°35'0 0.0
2016-May-23 23:14N 35°49' E 014°35'0 0.2
2016-May-23 20:29N 35°49' E 014°36'0 0.1
2016-May-23 19:31N 35°49' E 014°36'0 0.1
2016-May-23 18:33N 35°49' E 014°36'0 0.3
2016-May-23 17:33N 35°50' E 014°35'0 0.0
2016-May-23 16:33N 35°50' E 014°35'0 0.0
2016-May-23 15:31N 35°50' E 014°35'0 0.0
2016-May-23 14:31N 35°50' E 014°35'0 0.0
2016-May-23 13:31N 35°50' E 014°35'0 0.0
2016-May-23 12:30N 35°50' E 014°35'0 0.1
2016-May-23 11:32N 35°50' E 014°35'0 0.1
2016-May-23 10:31N 35°50' E 014°35'0 0.0
2016-May-23 09:30N 35°50' E 014°35'0 0.0
2016-May-23 08:18N 35°50' E 014°35'0 0.0
2016-May-23 06:24N 35°50' E 014°35'0 0.0
2016-May-23 05:33N 35°50' E 014°35'0 0.0
2016-May-23 04:33N 35°50' E 014°35'0 0.0
2016-May-23 03:33N 35°50' E 014°35'0 0.0
2016-May-23 02:32N 35°50' E 014°35'0 0.0
2016-May-23 01:33N 35°50' E 014°35'0 0.0
2016-May-23 00:28N 35°50' E 014°35'0 0.0
2016-May-22 23:33N 35°50' E 014°35'0 0.0
2016-May-22 22:33N 35°50' E 014°35'0 0.0
2016-May-22 21:33N 35°50' E 014°35'0 0.0
2016-May-22 20:33N 35°50' E 014°35'1 1.1
2016-May-22 19:34N 35°49' E 014°35'2 1.6
2016-May-22 18:33N 35°49' E 014°33'0 0.0
2016-May-22 16:28N 35°49' E 014°33'0 0.0
2016-May-22 15:33N 35°49' E 014°33'0 0.0
2016-May-22 14:33N 35°49' E 014°33'0 0.0
2016-May-22 13:33N 35°49' E 014°33'0 0.0
2016-May-22 12:05N 35°49' E 014°33'1 2.3
2016-May-22 11:34N 35°49' E 014°34'7 6.7
2016-May-22 10:34N 35°52' E 014°42'5 5.3
2016-May-22 09:33N 35°54' E 014°47'0 0.0
2016-May-22 08:33N 35°54' E 014°47'0 0.0
2016-May-22 07:33N 35°54' E 014°47'0 0.0
2016-May-22 06:33N 35°54' E 014°47'0 0.0
2016-May-22 05:33N 35°54' E 014°47'0 0.0
2016-May-22 04:33N 35°54' E 014°47'0 0.0
2016-May-22 03:33N 35°54' E 014°47'2 2.2
2016-May-22 02:33N 35°52' E 014°46'7 6.5
2016-May-22 01:33N 35°50' E 014°39'3 0.4
2016-May-21 18:32N 35°49' E 014°35'0 0.4
2016-May-21 17:33N 35°49' E 014°35'0 0.0
2016-May-21 14:30N 35°49' E 014°35'0 0.0
2016-May-21 12:33N 35°49' E 014°35'1 0.6
2016-May-21 11:33N 35°49' E 014°36'0 0.0
2016-May-21 10:33N 35°49' E 014°36'0 0.0
2016-May-21 09:34N 35°49' E 014°36'0 0.0
2016-May-21 08:15N 35°49' E 014°36'0 0.2
2016-May-21 06:30N 35°49' E 014°36'1 0.8
2016-May-21 05:26N 35°49' E 014°35'0 0.0
2016-May-20 07:33N 35°49' E 014°35'0 0.0
2016-May-20 06:33N 35°49' E 014°35'0 0.0
2016-May-19 23:33N 35°49' E 014°35'0 0.0
2016-May-19 22:33N 35°49' E 014°35'0 0.0
2016-May-19 21:24N 35°49' E 014°35'0 0.0
2016-May-19 18:33N 35°49' E 014°35'0 0.0
2016-May-19 17:31N 35°49' E 014°35'0 0.0
2016-May-19 12:30N 35°49' E 014°35'0 0.0
2016-May-19 11:29N 35°49' E 014°35'0 0.0
2016-May-19 09:13N 35°49' E 014°35'2 0.2
2016-May-18 23:31N 35°49' E 014°33'0 0.0
2016-May-18 22:20N 35°49' E 014°33'0 0.0
2016-May-18 21:11N 35°49' E 014°33'0 0.0
2016-May-18 20:33N 35°49' E 014°33'0 0.0
2016-May-18 19:33N 35°49' E 014°33'0 0.0
2016-May-18 18:33N 35°49' E 014°33'0 0.0
2016-May-18 17:33N 35°49' E 014°33'0 0.0
2016-May-18 16:33N 35°49' E 014°33'0 0.0
2016-May-18 15:33N 35°49' E 014°33'0 0.0
2016-May-18 14:33N 35°49' E 014°33'0 0.0
2016-May-18 13:33N 35°49' E 014°33'0 0.0
2016-May-18 12:33N 35°49' E 014°33'0 0.1
2016-May-18 11:34N 35°49' E 014°33'2 1.8
2016-May-18 10:33N 35°49' E 014°35'  
Track history (hours):
 
Tides and Currents Weather Stations Pressure Air Temp Water Temp Dewpoint Dewpoint Depression Visibility Wind Speed Wind Dir Waves Ship Positions

M/T Vemaoil Xi

Last reported at 2016-May-28 07:33 UTC. Time now 2016-May-28 07:59 UTC.
Position N 35°53' E 014°46'.

Length 105 m; draft 6.6 m.

Type: Tanker. MMSI: 215631000.

Date/timePositionNaut miles runAvg speedWind from/ knotsBaromVisibWave heightAir tempDewpointWater temp
2016-May-28 07:33N 35°53' E 014°46'0 0.0
2016-May-28 06:32N 35°53' E 014°46'0 0.0
2016-May-28 05:33N 35°53' E 014°46'1 0.7
2016-May-28 04:33N 35°52' E 014°45'0 0.5
2016-May-28 03:31N 35°53' E 014°45'0 0.0
2016-May-28 02:28N 35°53' E 014°45'0 0.0
2016-May-28 01:31N 35°53' E 014°45'0 0.0
2016-May-28 00:28N 35°53' E 014°45'0 0.0
2016-May-27 23:31N 35°53' E 014°45'0 0.0
2016-May-27 22:31N 35°53' E 014°45'0 0.1
2016-May-27 21:33N 35°53' E 014°45'0 0.3
2016-May-27 20:13N 35°52' E 014°45'0 0.0
2016-May-27 19:31N 35°52' E 014°45'0 0.0
2016-May-27 18:31N 35°52' E 014°45'0 0.0
2016-May-27 17:31N 35°52' E 014°45'1 1.2
2016-May-27 16:32N 35°53' E 014°46'0 0.0
2016-May-27 15:32N 35°53' E 014°46'0 0.0
2016-May-27 14:32N 35°53' E 014°46'0 0.0
2016-May-27 13:32N 35°53' E 014°46'0 0.0
2016-May-27 12:29N 35°53' E 014°46'0 0.0
2016-May-27 11:32N 35°53' E 014°46'0 0.0
2016-May-27 10:32N 35°53' E 014°46'0 0.1
2016-May-27 09:32N 35°53' E 014°46'2 1.9
2016-May-27 08:32N 35°54' E 014°48'1 0.7
2016-May-27 07:33N 35°55' E 014°47'0 0.0
2016-May-27 06:33N 35°55' E 014°47'0 0.0
2016-May-27 05:33N 35°55' E 014°47'0 0.0
2016-May-27 04:33N 35°55' E 014°47'0 0.0
2016-May-27 03:33N 35°55' E 014°47'1 1.3
2016-May-27 02:33N 35°55' E 014°46'6 6.4
2016-May-27 01:33N 35°54' E 014°38'6 6.0
2016-May-27 00:33N 35°53' E 014°31'1 0.6
2016-May-26 23:33N 35°53' E 014°30'0 0.0
2016-May-26 22:33N 35°53' E 014°30'0 0.0
2016-May-26 21:33N 35°53' E 014°30'0 0.0
2016-May-26 20:33N 35°53' E 014°30'0 0.0
2016-May-26 19:33N 35°53' E 014°30'0 0.0
2016-May-26 18:34N 35°53' E 014°30'0 0.0
2016-May-26 17:33N 35°53' E 014°30'0 0.0
2016-May-26 16:33N 35°53' E 014°30'0 0.0
2016-May-26 15:33N 35°53' E 014°30'2 1.5
2016-May-26 14:33N 35°54' E 014°31'3 3.3
2016-May-26 13:33N 35°56' E 014°34'1 1.3
2016-May-26 12:33N 35°57' E 014°36'2 2.1
2016-May-26 11:33N 35°55' E 014°34'2 1.5
2016-May-26 10:33N 35°55' E 014°36'3 3.4
2016-May-26 09:33N 35°55' E 014°40'6 5.9
2016-May-26 08:33N 35°55' E 014°47'0 0.2
2016-May-26 07:34N 35°54' E 014°47'0 0.0
2016-May-26 06:34N 35°54' E 014°47'0 0.0
2016-May-26 05:33N 35°54' E 014°47'0 0.0
2016-May-26 04:33N 35°54' E 014°47'0 0.0
2016-May-26 03:33N 35°54' E 014°47'0 0.0
2016-May-26 02:33N 35°54' E 014°47'0 0.0
2016-May-26 01:33N 35°54' E 014°47'2 1.5
2016-May-26 00:33N 35°53' E 014°46'0 0.0
2016-May-25 23:33N 35°53' E 014°46'0 0.0
2016-May-25 22:33N 35°53' E 014°46'0 0.0
2016-May-25 21:33N 35°53' E 014°46'0 0.0
2016-May-25 20:33N 35°53' E 014°46'5 4.5
2016-May-25 19:33N 35°51' E 014°41'5 4.9
2016-May-25 18:33N 35°50' E 014°35'0 0.0
2016-May-25 17:33N 35°50' E 014°35'0 0.0
2016-May-25 16:34N 35°50' E 014°35'0 0.0
2016-May-25 15:26N 35°50' E 014°35'0 0.0
2016-May-25 14:23N 35°50' E 014°35'0 0.0
2016-May-25 13:33N 35°50' E 014°35'0 0.0
2016-May-25 12:33N 35°50' E 014°35'0 0.0
2016-May-25 11:33N 35°50' E 014°35'0 0.2
2016-May-25 10:33N 35°49' E 014°35'0 0.0
2016-May-25 09:34N 35°49' E 014°35'0 0.0
2016-May-25 08:33N 35°49' E 014°35'1 1.5
2016-May-25 07:33N 35°49' E 014°34'1 1.1
2016-May-25 06:31N 35°49' E 014°32'0 0.0
2016-May-25 01:19N 35°49' E 014°32'1 1.0
2016-May-25 00:31N 35°49' E 014°33'2 2.2
2016-May-24 23:33N 35°49' E 014°36'0 0.0
2016-May-24 22:30N 35°49' E 014°36'0 0.0
2016-May-24 21:32N 35°49' E 014°36'0 0.0
2016-May-24 20:33N 35°49' E 014°36'0 0.1
2016-May-24 19:32N 35°49' E 014°36'0 0.0
2016-May-24 18:33N 35°49' E 014°36'0 0.0
2016-May-24 17:33N 35°49' E 014°36'0 0.1
2016-May-24 16:33N 35°49' E 014°36'0 0.4
2016-May-24 15:33N 35°49' E 014°36'0 0.5
2016-May-24 14:34N 35°49' E 014°35'0 0.0
2016-May-24 13:33N 35°49' E 014°35'0 0.0
2016-May-24 12:33N 35°49' E 014°35'0 0.0
2016-May-24 11:34N 35°49' E 014°35'0 0.0
2016-May-24 10:33N 35°49' E 014°35'0 0.1
2016-May-24 09:33N 35°49' E 014°35'0 0.4
2016-May-24 08:33N 35°49' E 014°35'0 0.0
2016-May-24 07:33N 35°49' E 014°35'0 0.1
2016-May-24 06:33N 35°49' E 014°35'0 0.1
2016-May-24 05:33N 35°49' E 014°35'0 0.0
2016-May-24 04:33N 35°49' E 014°35'0 0.0
2016-May-24 03:34N 35°49' E 014°35'0 0.0
2016-May-24 02:33N 35°49' E 014°35'0 0.0
2016-May-24 01:33N 35°49' E 014°35'0 0.0
2016-May-23 23:14N 35°49' E 014°35'0 0.2
2016-May-23 20:29N 35°49' E 014°36'0 0.1
2016-May-23 19:31N 35°49' E 014°36'0 0.1
2016-May-23 18:33N 35°49' E 014°36'0 0.3
2016-May-23 17:33N 35°50' E 014°35'0 0.0
2016-May-23 16:33N 35°50' E 014°35'0 0.0
2016-May-23 15:31N 35°50' E 014°35'0 0.0
2016-May-23 14:31N 35°50' E 014°35'0 0.0
2016-May-23 13:31N 35°50' E 014°35'0 0.0
2016-May-23 12:30N 35°50' E 014°35'0 0.1
2016-May-23 11:32N 35°50' E 014°35'0 0.1
2016-May-23 10:31N 35°50' E 014°35'0 0.0
2016-May-23 09:30N 35°50' E 014°35'0 0.0
2016-May-23 08:18N 35°50' E 014°35'0 0.0
2016-May-23 06:24N 35°50' E 014°35'0 0.0
2016-May-23 05:33N 35°50' E 014°35'0 0.0
2016-May-23 04:33N 35°50' E 014°35'0 0.0
2016-May-23 03:33N 35°50' E 014°35'0 0.0
2016-May-23 02:32N 35°50' E 014°35'0 0.0
2016-May-23 01:33N 35°50' E 014°35'0 0.0
2016-May-23 00:28N 35°50' E 014°35'0 0.0
2016-May-22 23:33N 35°50' E 014°35'0 0.0
2016-May-22 22:33N 35°50' E 014°35'0 0.0
2016-May-22 21:33N 35°50' E 014°35'0 0.0
2016-May-22 20:33N 35°50' E 014°35'1 1.1
2016-May-22 19:34N 35°49' E 014°35'2 1.6
2016-May-22 18:33N 35°49' E 014°33'0 0.0
2016-May-22 16:28N 35°49' E 014°33'0 0.0
2016-May-22 15:33N 35°49' E 014°33'0 0.0
2016-May-22 14:33N 35°49' E 014°33'0 0.0
2016-May-22 13:33N 35°49' E 014°33'0 0.0
2016-May-22 12:05N 35°49' E 014°33'1 2.3
2016-May-22 11:34N 35°49' E 014°34'7 6.7
2016-May-22 10:34N 35°52' E 014°42'5 5.3
2016-May-22 09:33N 35°54' E 014°47'0 0.0
2016-May-22 08:33N 35°54' E 014°47'0 0.0
2016-May-22 07:33N 35°54' E 014°47'0 0.0
2016-May-22 06:33N 35°54' E 014°47'0 0.0
2016-May-22 05:33N 35°54' E 014°47'0 0.0
2016-May-22 04:33N 35°54' E 014°47'0 0.0
2016-May-22 03:33N 35°54' E 014°47'2 2.2
2016-May-22 02:33N 35°52' E 014°46'7 6.5
2016-May-22 01:33N 35°50' E 014°39'3 0.4
2016-May-21 18:32N 35°49' E 014°35'0 0.4
2016-May-21 17:33N 35°49' E 014°35'0 0.0
2016-May-21 14:30N 35°49' E 014°35'0 0.0
2016-May-21 12:33N 35°49' E 014°35'1 0.6
2016-May-21 11:33N 35°49' E 014°36'0 0.0
2016-May-21 10:33N 35°49' E 014°36'0 0.0
2016-May-21 09:34N 35°49' E 014°36'0 0.0
2016-May-21 08:15N 35°49' E 014°36'0 0.2
2016-May-21 06:30N 35°49' E 014°36'1 0.8
2016-May-21 05:26N 35°49' E 014°35'0 0.0
2016-May-20 07:33N 35°49' E 014°35'0 0.0
2016-May-20 06:33N 35°49' E 014°35'0 0.0
2016-May-19 23:33N 35°49' E 014°35'0 0.0
2016-May-19 22:33N 35°49' E 014°35'0 0.0
2016-May-19 21:24N 35°49' E 014°35'0 0.0
2016-May-19 18:33N 35°49' E 014°35'0 0.0
2016-May-19 17:31N 35°49' E 014°35'0 0.0
2016-May-19 12:30N 35°49' E 014°35'0 0.0
2016-May-19 11:29N 35°49' E 014°35'0 0.0
2016-May-19 09:13N 35°49' E 014°35'2 0.2
2016-May-18 23:31N 35°49' E 014°33'0 0.0
2016-May-18 22:20N 35°49' E 014°33'0 0.0
2016-May-18 21:11N 35°49' E 014°33'0 0.0
2016-May-18 20:33N 35°49' E 014°33'0 0.0
2016-May-18 19:33N 35°49' E 014°33'0 0.0
2016-May-18 18:33N 35°49' E 014°33'0 0.0
2016-May-18 17:33N 35°49' E 014°33'0 0.0
2016-May-18 16:33N 35°49' E 014°33'0 0.0
2016-May-18 15:33N 35°49' E 014°33'0 0.0
2016-May-18 14:33N 35°49' E 014°33'0 0.0
2016-May-18 13:33N 35°49' E 014°33'0 0.0
2016-May-18 12:33N 35°49' E 014°33'0 0.1
2016-May-18 11:34N 35°49' E 014°33'2 1.8
2016-May-18 10:33N 35°49' E 014°35'  

Dump ship's entire track history